createdAt,value
2022-10-05T00:00:56.951Z,87.74
2022-10-05T00:03:26.684Z,87.66
2022-10-05T00:05:55.257Z,87.88
2022-10-05T00:08:25.208Z,87.58
2022-10-05T00:10:53.655Z,87.64
2022-10-05T00:13:24.358Z,87.94
2022-10-05T00:15:54.009Z,88.21
2022-10-05T00:18:23.469Z,87.64
2022-10-05T00:20:51.355Z,87.98
2022-10-05T00:23:22.702Z,88.11
2022-10-05T00:25:50.565Z,88.09
2022-10-05T00:28:23.067Z,88.06
2022-10-05T00:30:50.845Z,88.06
2022-10-05T00:33:18.655Z,88.22
2022-10-05T00:35:47.744Z,87.88
2022-10-05T00:38:15.567Z,87.74
2022-10-05T00:40:59.109Z,87.80
2022-10-05T00:44:02.983Z,88.45
2022-10-05T00:46:43.418Z,88.38
2022-10-05T00:49:22.829Z,88.37
2022-10-05T00:52:00.258Z,88.28
2022-10-05T00:54:35.312Z,88.17
2022-10-05T00:57:20.084Z,88.41
2022-10-05T00:59:57.982Z,88.03
2022-10-05T01:02:36.576Z,88.63
2022-10-05T01:05:11.228Z,88.63
2022-10-05T01:07:50.377Z,88.92
2022-10-05T01:10:29.177Z,88.45
2022-10-05T01:13:04.754Z,88.92
2022-10-05T01:15:37.894Z,88.43
2022-10-05T01:18:12.998Z,88.30
2022-10-05T01:20:51.349Z,88.81
2022-10-05T01:23:53.727Z,88.65
2022-10-05T01:26:44.529Z,88.82
2022-10-05T01:29:19.477Z,88.85
2022-10-05T01:31:56.679Z,89.33
2022-10-05T01:34:31.887Z,89.63
2022-10-05T01:37:12.810Z,89.81
2022-10-05T01:39:49.978Z,89.93
2022-10-05T01:42:27.350Z,89.72
2022-10-05T01:45:05.313Z,89.32
2022-10-05T01:47:43.530Z,89.94
2022-10-05T01:50:21.619Z,89.71
2022-10-05T01:52:57.768Z,91.46
2022-10-05T01:55:37.168Z,90.66
2022-10-05T01:58:12.582Z,90.26
2022-10-05T02:00:50.462Z,90.82
2022-10-05T02:03:22.008Z,92.11
2022-10-05T02:05:54.306Z,91.21
2022-10-05T02:08:27.446Z,92.09
2022-10-05T02:11:02.229Z,91.30
2022-10-05T02:13:35.965Z,91.13
2022-10-05T02:16:09.890Z,91.33
2022-10-05T02:18:41.737Z,91.74
2022-10-05T02:21:10.019Z,91.61
2022-10-05T02:23:41.365Z,91.94
2022-10-05T02:26:12.520Z,91.62
2022-10-05T02:28:44.962Z,91.80
2022-10-05T02:31:17.613Z,91.91
2022-10-05T02:33:45.735Z,91.61
2022-10-05T02:36:17.487Z,91.53
2022-10-05T02:39:00.996Z,91.55
2022-10-05T02:41:40.784Z,91.19
2022-10-05T02:44:18.256Z,91.88
2022-10-05T02:46:56.173Z,91.94
2022-10-05T02:49:34.127Z,91.47
2022-10-05T02:52:10.912Z,91.88
2022-10-05T02:54:49.328Z,91.64
2022-10-05T02:57:26.105Z,91.73
2022-10-05T02:59:59.389Z,91.87
2022-10-05T03:02:34.800Z,92.42
2022-10-05T03:05:13.917Z,92.52
2022-10-05T03:07:48.129Z,92.39
2022-10-05T03:10:26.465Z,92.63
2022-10-05T03:13:04.066Z,92.48
2022-10-05T03:15:52.215Z,92.66
2022-10-05T03:18:31.404Z,91.89
2022-10-05T03:21:08.080Z,92.55
2022-10-05T03:23:48.010Z,92.53
2022-10-05T03:26:27.650Z,92.16
2022-10-05T03:29:03.808Z,92.64
2022-10-05T03:31:39.347Z,93.88
2022-10-05T03:34:13.935Z,92.71
2022-10-05T03:36:50.217Z,93.23
2022-10-05T03:39:24.079Z,93.59
2022-10-05T03:42:01.445Z,93.36
2022-10-05T03:44:41.803Z,93.89
2022-10-05T03:47:15.830Z,93.88
2022-10-05T03:49:58.259Z,94.18
2022-10-05T03:52:35.704Z,93.71
2022-10-05T03:55:10.381Z,94.07
2022-10-05T03:57:41.360Z,93.71
2022-10-05T04:00:16.203Z,94.26
2022-10-05T04:02:49.300Z,93.79
2022-10-05T04:05:22.122Z,93.75
2022-10-05T04:07:54.717Z,93.78
2022-10-05T04:10:27.394Z,93.51
2022-10-05T04:13:02.629Z,93.63
2022-10-05T04:15:35.191Z,93.58
2022-10-05T04:18:06.607Z,93.51
2022-10-05T04:20:43.387Z,93.16
2022-10-05T04:23:20.464Z,93.52
2022-10-05T04:25:51.820Z,93.22
2022-10-05T04:28:29.642Z,92.92
2022-10-05T04:31:04.810Z,93.92
2022-10-05T04:33:33.198Z,93.56
2022-10-05T04:36:18.389Z,94.11
2022-10-05T04:38:55.081Z,93.31
2022-10-05T04:41:49.107Z,93.84
2022-10-05T04:44:43.512Z,93.23
2022-10-05T04:47:26.864Z,93.26
2022-10-05T04:50:13.864Z,93.45
2022-10-05T04:52:52.235Z,93.52
2022-10-05T04:55:28.828Z,93.18
2022-10-05T04:58:06.681Z,93.03
2022-10-05T05:00:48.042Z,92.67
2022-10-05T05:03:37.349Z,92.89
2022-10-05T05:06:17.776Z,92.63
2022-10-05T05:09:10.087Z,92.96
2022-10-05T05:11:49.596Z,92.79
2022-10-05T05:14:30.488Z,92.21
2022-10-05T05:17:13.029Z,92.59
2022-10-05T05:19:51.970Z,92.54
2022-10-05T05:22:30.277Z,92.11
2022-10-05T05:25:17.197Z,92.28
2022-10-05T05:27:49.934Z,91.72
2022-10-05T05:30:23.585Z,91.58
2022-10-05T05:33:13.310Z,91.56
2022-10-05T05:36:09.206Z,91.74
2022-10-05T05:38:42.094Z,91.80
2022-10-05T05:41:14.095Z,92.00
2022-10-05T05:43:54.459Z,92.06
2022-10-05T05:46:45.042Z,91.83
2022-10-05T05:49:19.403Z,92.52
2022-10-05T05:51:55.846Z,92.41
2022-10-05T05:54:32.588Z,91.85
2022-10-05T05:57:10.962Z,92.02
2022-10-05T05:59:51.321Z,92.09
2022-10-05T06:02:22.792Z,92.23
2022-10-05T06:04:55.889Z,91.98
2022-10-05T06:07:30.360Z,92.16
2022-10-05T06:10:02.898Z,92.08
2022-10-05T06:12:36.426Z,91.77
2022-10-05T06:15:17.265Z,91.37
2022-10-05T06:17:49.332Z,91.90
2022-10-05T06:20:25.279Z,91.91
2022-10-05T06:22:54.978Z,91.86
2022-10-05T06:25:31.108Z,91.50
2022-10-05T06:28:10.697Z,91.96
2022-10-05T06:30:49.712Z,91.80
2022-10-05T06:33:35.675Z,91.70
2022-10-05T06:36:18.721Z,91.62
2022-10-05T06:39:16.036Z,92.00
2022-10-05T06:41:59.497Z,91.36
2022-10-05T06:44:35.580Z,91.75
2022-10-05T06:47:11.608Z,91.30
2022-10-05T06:49:46.850Z,91.82
2022-10-05T06:52:26.386Z,91.61
2022-10-05T06:55:13.930Z,91.07
2022-10-05T06:57:53.166Z,91.34
2022-10-05T07:00:24.943Z,90.92
2022-10-05T07:03:01.804Z,90.96
2022-10-05T07:05:44.018Z,90.77
2022-10-05T07:08:15.019Z,91.21
2022-10-05T07:10:59.649Z,90.83
2022-10-05T07:13:51.724Z,90.89
2022-10-05T07:16:29.350Z,90.31
2022-10-05T07:19:12.352Z,90.13
2022-10-05T07:21:46.974Z,90.23
2022-10-05T07:24:29.265Z,90.48
2022-10-05T07:27:08.915Z,90.60
2022-10-05T07:29:46.704Z,90.41
2022-10-05T07:32:28.835Z,89.91
2022-10-05T07:35:05.490Z,89.63
2022-10-05T07:37:57.102Z,89.86
2022-10-05T07:40:29.855Z,89.81
2022-10-05T07:43:14.978Z,89.46
2022-10-05T07:45:47.820Z,89.64
2022-10-05T07:48:22.241Z,89.40
2022-10-05T07:51:04.345Z,89.30
2022-10-05T07:53:38.347Z,88.58
2022-10-05T07:56:14.705Z,88.61
2022-10-05T07:58:47.824Z,89.38
2022-10-05T08:01:19.697Z,89.12
2022-10-05T08:03:56.768Z,88.56
2022-10-05T08:06:40.369Z,88.37
2022-10-05T08:09:19.603Z,89.24
2022-10-05T08:11:56.695Z,89.31
2022-10-05T08:14:29.842Z,88.69
2022-10-05T08:17:02.784Z,89.24
2022-10-05T08:19:40.764Z,88.37
2022-10-05T08:22:12.512Z,88.98
2022-10-05T08:24:47.278Z,89.00
2022-10-05T08:27:21.052Z,88.52
2022-10-05T08:29:56.459Z,88.60
2022-10-05T08:32:26.891Z,89.21
2022-10-05T08:35:02.960Z,88.72
2022-10-05T08:37:38.335Z,88.92
2022-10-05T08:40:31.006Z,88.16
2022-10-05T08:43:20.691Z,88.36
2022-10-05T08:46:17.715Z,88.12
2022-10-05T08:49:37.180Z,88.62
2022-10-05T08:52:25.324Z,88.64
2022-10-05T08:55:22.505Z,88.07
2022-10-05T08:58:06.342Z,88.06
2022-10-05T09:00:49.014Z,88.22
2022-10-05T09:03:34.670Z,88.12
2022-10-05T09:06:29.080Z,88.16
2022-10-05T09:09:32.737Z,87.90
2022-10-05T09:12:25.927Z,86.69
2022-10-05T09:15:25.313Z,86.94
2022-10-05T09:18:43.009Z,86.39
2022-10-05T09:21:19.411Z,86.45
2022-10-05T09:23:52.774Z,86.64
2022-10-05T09:26:44.429Z,86.23
2022-10-05T09:29:50.997Z,85.38
2022-10-05T09:32:57.740Z,84.83
2022-10-05T09:36:04.799Z,84.14
2022-10-05T09:38:51.137Z,84.50
2022-10-05T09:41:51.066Z,83.83
2022-10-05T09:45:01.604Z,84.09
2022-10-05T09:47:56.440Z,84.25
2022-10-05T09:51:13.035Z,83.46
2022-10-05T09:54:25.351Z,83.02
2022-10-05T09:57:11.974Z,82.55
2022-10-05T10:00:21.139Z,81.94
2022-10-05T10:03:14.839Z,82.47
2022-10-05T10:06:12.823Z,81.39
2022-10-05T10:08:57.505Z,81.96
2022-10-05T10:11:42.587Z,81.51
2022-10-05T10:14:50.921Z,81.80
2022-10-05T10:17:55.524Z,81.71
2022-10-05T10:20:36.812Z,81.60
2022-10-05T10:23:29.878Z,81.21
2022-10-05T10:26:38.014Z,80.95
2022-10-05T10:29:29.846Z,80.90
2022-10-05T10:32:09.647Z,80.65
2022-10-05T10:35:07.298Z,81.23
2022-10-05T10:37:58.844Z,80.57
2022-10-05T10:40:38.938Z,79.61
2022-10-05T10:43:36.620Z,80.53
2022-10-05T10:46:14.951Z,79.76
2022-10-05T10:49:10.505Z,79.72
2022-10-05T10:51:56.956Z,79.08
2022-10-05T10:54:53.057Z,79.07
2022-10-05T10:57:30.330Z,78.68
2022-10-05T11:00:15.772Z,77.76
2022-10-05T11:03:10.284Z,76.87
2022-10-05T11:06:20.846Z,76.68
2022-10-05T11:09:33.208Z,77.52
2022-10-05T11:12:39.945Z,76.87
2022-10-05T11:15:32.076Z,76.44
2022-10-05T11:18:20.394Z,76.44
2022-10-05T11:21:34.218Z,76.49
2022-10-05T11:24:50.529Z,74.72
2022-10-05T11:27:36.259Z,73.69
2022-10-05T11:30:28.601Z,74.20
2022-10-05T11:33:22.078Z,74.03
2022-10-05T11:36:08.938Z,74.28
2022-10-05T11:39:10.326Z,74.65
2022-10-05T11:41:56.601Z,73.21
2022-10-05T11:44:47.568Z,72.68
2022-10-05T11:47:22.653Z,73.65
2022-10-05T11:50:05.542Z,72.94
2022-10-05T11:52:41.422Z,72.49
2022-10-05T11:55:24.594Z,71.86
2022-10-05T11:57:58.026Z,71.83
2022-10-05T12:00:31.750Z,71.15
2022-10-05T12:03:23.099Z,71.56
2022-10-05T12:06:19.646Z,71.77
2022-10-05T12:08:57.363Z,70.38
2022-10-05T12:11:38.950Z,70.56
2022-10-05T12:14:18.383Z,69.74
2022-10-05T12:16:52.324Z,67.65
2022-10-05T12:19:28.373Z,69.45
2022-10-05T12:22:03.763Z,69.81
2022-10-05T12:25:01.491Z,69.38
2022-10-05T12:27:35.044Z,70.42
2022-10-05T12:30:13.508Z,70.54
2022-10-05T12:32:50.083Z,69.84
2022-10-05T12:35:36.520Z,70.00
2022-10-05T12:38:16.402Z,69.95
2022-10-05T12:40:51.577Z,69.49
2022-10-05T12:43:31.796Z,70.15
2022-10-05T12:46:13.999Z,69.60
2022-10-05T12:48:58.923Z,69.88
2022-10-05T12:51:37.027Z,68.97
2022-10-05T12:54:14.659Z,69.84
2022-10-05T12:56:48.766Z,70.40
2022-10-05T12:59:30.631Z,69.96
2022-10-05T13:02:11.994Z,69.79
2022-10-05T13:04:46.903Z,69.11
2022-10-05T13:07:33.515Z,68.79
2022-10-05T13:10:09.861Z,68.30
2022-10-05T13:12:47.943Z,68.52
2022-10-05T13:15:23.721Z,69.54
2022-10-05T13:18:01.371Z,68.96
2022-10-05T13:20:33.637Z,69.07
2022-10-05T13:23:08.788Z,68.91
2022-10-05T13:25:42.342Z,67.56
2022-10-05T13:28:16.680Z,68.07
2022-10-05T13:30:58.924Z,67.65
2022-10-05T13:33:44.557Z,67.39
2022-10-05T13:36:17.561Z,67.59
2022-10-05T13:38:56.622Z,67.48
2022-10-05T13:41:37.601Z,66.40
2022-10-05T13:44:17.642Z,67.42
2022-10-05T13:46:53.503Z,66.53
2022-10-05T13:49:28.944Z,64.52
2022-10-05T13:52:07.647Z,62.85
2022-10-05T13:54:43.835Z,63.40
2022-10-05T13:57:22.932Z,62.28
2022-10-05T13:59:55.103Z,62.86
2022-10-05T14:02:28.344Z,62.42
2022-10-05T14:05:03.052Z,61.11
2022-10-05T14:07:35.212Z,61.76
2022-10-05T14:10:05.672Z,61.75
2022-10-05T14:12:41.594Z,60.94
2022-10-05T14:15:29.416Z,61.08
2022-10-05T14:17:57.598Z,60.83
2022-10-05T14:20:30.989Z,61.87
2022-10-05T14:23:02.149Z,62.02
2022-10-05T14:25:31.313Z,60.72
2022-10-05T14:28:03.345Z,61.48
2022-10-05T14:30:32.814Z,62.37
2022-10-05T14:33:16.037Z,62.12
2022-10-05T14:35:50.505Z,61.33
2022-10-05T14:38:21.332Z,62.73
2022-10-05T14:41:04.937Z,61.44
2022-10-05T14:43:33.829Z,61.55
2022-10-05T14:46:05.584Z,60.93
2022-10-05T14:48:42.467Z,60.78
2022-10-05T14:51:25.125Z,59.95
2022-10-05T14:53:58.476Z,58.92
2022-10-05T14:56:43.048Z,58.57
2022-10-05T14:59:31.781Z,58.73
2022-10-05T15:02:18.365Z,59.31
2022-10-05T15:04:56.463Z,59.36
2022-10-05T15:07:29.421Z,60.32
2022-10-05T15:10:07.775Z,59.49
2022-10-05T15:12:40.590Z,60.51
2022-10-05T15:15:25.432Z,60.68
2022-10-05T15:17:58.994Z,60.57
2022-10-05T15:20:34.322Z,60.35
2022-10-05T15:23:20.863Z,60.98
2022-10-05T15:25:55.182Z,61.10
2022-10-05T15:28:34.781Z,60.53
2022-10-05T15:31:05.693Z,61.72
2022-10-05T15:33:40.122Z,61.67
2022-10-05T15:36:17.349Z,61.54
2022-10-05T15:39:03.256Z,62.08
2022-10-05T15:41:45.070Z,62.12
2022-10-05T15:44:26.064Z,62.47
2022-10-05T15:46:59.738Z,63.14
2022-10-05T15:49:37.948Z,63.34
2022-10-05T15:52:17.718Z,63.75
2022-10-05T15:55:09.141Z,64.65
2022-10-05T15:57:45.405Z,64.70
2022-10-05T16:00:15.706Z,64.65
2022-10-05T16:02:52.746Z,65.06
2022-10-05T16:05:53.500Z,65.13
2022-10-05T16:08:54.277Z,65.80
2022-10-05T16:11:38.761Z,65.95
2022-10-05T16:14:25.723Z,66.12
2022-10-05T16:17:05.848Z,66.02
2022-10-05T16:19:41.894Z,66.06
2022-10-05T16:22:19.188Z,66.23
2022-10-05T16:24:59.762Z,65.97
2022-10-05T16:27:39.415Z,66.03
2022-10-05T16:30:10.751Z,66.40
2022-10-05T16:32:44.254Z,66.31
2022-10-05T16:35:25.044Z,66.11
2022-10-05T16:38:05.528Z,66.87
2022-10-05T16:40:41.481Z,66.73
2022-10-05T16:43:21.810Z,67.63
2022-10-05T16:46:03.194Z,67.43
2022-10-05T16:48:34.915Z,67.36
2022-10-05T16:51:25.986Z,67.26
2022-10-05T16:54:02.961Z,67.38
2022-10-05T16:56:38.689Z,67.60
2022-10-05T16:59:27.139Z,67.15
2022-10-05T17:02:04.295Z,67.45
2022-10-05T17:04:45.823Z,67.21
2022-10-05T17:07:32.865Z,66.88
2022-10-05T17:10:27.420Z,67.16
2022-10-05T17:13:04.067Z,67.67
2022-10-05T17:15:49.111Z,67.32
2022-10-05T17:18:28.417Z,67.56
2022-10-05T17:21:05.435Z,67.47
2022-10-05T17:23:42.389Z,67.33
2022-10-05T17:26:34.860Z,67.39
2022-10-05T17:29:16.470Z,67.54
2022-10-05T17:32:12.431Z,67.67
2022-10-05T17:35:00.995Z,68.10
2022-10-05T17:37:41.329Z,68.05
2022-10-05T17:40:39.697Z,68.01
2022-10-05T17:43:25.310Z,68.34
2022-10-05T17:45:56.706Z,67.87
2022-10-05T17:48:42.088Z,67.99
2022-10-05T17:52:14.133Z,68.21
2022-10-05T17:55:30.127Z,68.57
2022-10-05T17:58:00.614Z,68.98
2022-10-05T18:00:42.064Z,68.93
2022-10-05T18:03:35.093Z,69.10
2022-10-05T18:06:42.239Z,69.11
2022-10-05T18:09:21.762Z,68.96
2022-10-05T18:12:10.057Z,69.19
2022-10-05T18:15:04.114Z,69.21
2022-10-05T18:17:42.185Z,68.65
2022-10-05T18:20:31.623Z,69.34
2022-10-05T18:23:35.504Z,69.03
2022-10-05T18:26:20.908Z,69.27
2022-10-05T18:28:58.155Z,69.32
2022-10-05T18:31:35.011Z,69.19
2022-10-05T18:34:26.275Z,69.25
2022-10-05T18:37:08.893Z,69.42
2022-10-05T18:39:55.496Z,69.66
2022-10-05T18:42:32.760Z,69.25
2022-10-05T18:45:09.345Z,69.60
2022-10-05T18:47:46.492Z,69.32
2022-10-05T18:50:22.933Z,68.76
2022-10-05T18:53:02.147Z,69.37
2022-10-05T18:55:34.237Z,69.52
2022-10-05T18:58:14.600Z,69.52
2022-10-05T19:00:59.983Z,69.74
2022-10-05T19:03:35.292Z,69.67
2022-10-05T19:06:13.049Z,69.67
2022-10-05T19:08:51.776Z,69.64
2022-10-05T19:11:26.779Z,69.55
2022-10-05T19:14:06.556Z,69.65
2022-10-05T19:16:49.432Z,70.00
2022-10-05T19:19:33.509Z,69.77
2022-10-05T19:22:08.869Z,70.21
2022-10-05T19:24:48.571Z,69.90
2022-10-05T19:27:27.188Z,70.45
2022-10-05T19:30:15.456Z,70.58
2022-10-05T19:32:59.834Z,70.60
2022-10-05T19:35:34.459Z,70.80
2022-10-05T19:38:15.646Z,70.68
2022-10-05T19:40:53.790Z,70.78
2022-10-05T19:43:35.826Z,71.17
2022-10-05T19:46:19.112Z,71.03
2022-10-05T19:48:50.838Z,71.35
2022-10-05T19:51:30.414Z,71.44
2022-10-05T19:54:01.498Z,71.33
2022-10-05T19:56:33.465Z,71.54
2022-10-05T19:59:14.190Z,71.84
2022-10-05T20:01:50.680Z,71.57
2022-10-05T20:04:34.379Z,72.03
2022-10-05T20:07:02.989Z,72.07
2022-10-05T20:09:50.216Z,72.12
2022-10-05T20:12:18.059Z,72.36
2022-10-05T20:15:05.915Z,72.65
2022-10-05T20:17:52.348Z,72.47
2022-10-05T20:20:36.587Z,72.91
2022-10-05T20:23:19.699Z,72.74
2022-10-05T20:26:07.830Z,72.98
2022-10-05T20:28:35.645Z,73.11
2022-10-05T20:31:03.556Z,73.41
2022-10-05T20:33:34.253Z,73.37
2022-10-05T20:36:03.936Z,73.43
2022-10-05T20:38:40.613Z,73.45
2022-10-05T20:41:08.920Z,73.64
2022-10-05T20:43:39.168Z,74.06
2022-10-05T20:46:07.592Z,74.36
2022-10-05T20:48:37.123Z,74.39
2022-10-05T20:51:05.228Z,74.02
2022-10-05T20:53:33.651Z,74.33
2022-10-05T20:56:02.429Z,74.32
2022-10-05T20:58:30.701Z,74.52
2022-10-05T21:01:18.454Z,74.62
2022-10-05T21:03:47.994Z,74.51
2022-10-05T21:06:15.780Z,74.45
2022-10-05T21:08:44.159Z,74.58
2022-10-05T21:11:12.154Z,74.49
2022-10-05T21:13:44.654Z,74.66
2022-10-05T21:16:13.491Z,74.84
2022-10-05T21:18:41.465Z,75.38
2022-10-05T21:21:10.601Z,75.57
2022-10-05T21:23:38.390Z,75.76
2022-10-05T21:26:07.366Z,75.72
2022-10-05T21:28:35.355Z,76.28
2022-10-05T21:31:03.281Z,77.37
2022-10-05T21:33:31.423Z,78.14
2022-10-05T21:35:59.602Z,78.68
2022-10-05T21:38:29.844Z,80.62
2022-10-05T21:40:57.864Z,81.01
2022-10-05T21:43:28.166Z,82.50
2022-10-05T21:45:56.655Z,83.59
2022-10-05T21:48:26.445Z,84.42
2022-10-05T21:50:54.624Z,84.75
2022-10-05T21:53:26.444Z,84.29
2022-10-05T21:55:57.714Z,84.13
2022-10-05T21:58:29.802Z,83.88
2022-10-05T22:00:57.894Z,83.84
2022-10-05T22:03:25.937Z,84.70
2022-10-05T22:05:53.844Z,83.92
2022-10-05T22:08:26.649Z,84.24
2022-10-05T22:10:56.584Z,83.78
2022-10-05T22:13:25.991Z,83.72
2022-10-05T22:15:55.521Z,83.36
2022-10-05T22:18:25.196Z,82.95
2022-10-05T22:20:54.302Z,83.35
2022-10-05T22:23:22.055Z,83.73
2022-10-05T22:25:50.177Z,83.61
2022-10-05T22:28:19.486Z,84.10
2022-10-05T22:30:47.636Z,83.70
2022-10-05T22:33:15.384Z,83.60
2022-10-05T22:35:43.277Z,83.49
2022-10-05T22:38:11.080Z,84.24
2022-10-05T22:40:38.888Z,83.97
2022-10-05T22:43:06.778Z,84.55
2022-10-05T22:45:36.063Z,84.69
2022-10-05T22:48:03.854Z,85.22
2022-10-05T22:50:31.685Z,86.19
2022-10-05T22:52:59.395Z,86.98
2022-10-05T22:55:27.183Z,86.11
2022-10-05T22:57:54.976Z,84.33
2022-10-05T23:00:35.219Z,83.85
2022-10-05T23:03:09.901Z,84.06
2022-10-05T23:05:37.880Z,83.13
2022-10-05T23:08:05.732Z,82.83
2022-10-05T23:10:34.048Z,82.70
2022-10-05T23:13:01.924Z,82.76
2022-10-05T23:15:29.784Z,82.86
2022-10-05T23:17:57.540Z,82.49
2022-10-05T23:20:26.685Z,82.75
2022-10-05T23:22:54.446Z,82.66
2022-10-05T23:25:22.389Z,82.00
2022-10-05T23:27:50.133Z,82.23
2022-10-05T23:30:18.036Z,82.63
2022-10-05T23:32:46.217Z,82.22
2022-10-05T23:35:14.521Z,82.55
2022-10-05T23:37:45.281Z,82.11
2022-10-05T23:40:15.282Z,82.51
2022-10-05T23:42:43.296Z,82.19
2022-10-05T23:45:12.627Z,82.59
2022-10-05T23:47:40.902Z,82.50
2022-10-05T23:50:10.369Z,82.92
2022-10-05T23:52:38.575Z,83.01
2022-10-05T23:55:08.586Z,83.20
2022-10-05T23:57:36.390Z,83.43
